Time;durP1;ratioP1;P1;durP2;ratioP2;P2;SDS_P1;SDS_P2;PMS_P1;PMS_P2;Temp;Humidity;BMP_temperature;BMP_pressure;BME280_temperature;BME280_humidity;BME280_pressure;Samples;Min_cycle;Max_cycle;Signal;HPM_P1;HPM_P2
2022/01/03 00:00:14;;;;;;;5.93;1.40;;;11.60;99.90;;;;;;20667636;28;20041;-75
2022/01/03 00:10:17;;;;;;;11.30;1.75;;;11.50;99.90;;;;;;20665777;28;20054;-75
2022/01/03 00:20:19;;;;;;;8.18;1.50;;;11.40;99.90;;;;;;20666543;28;20034;-75
2022/01/03 00:30:21;;;;;;;6.38;1.25;;;11.40;99.90;;;;;;20665518;28;20489;-74
2022/01/03 00:40:24;;;;;;;4.30;1.70;;;11.40;99.90;;;;;;20647164;28;20034;-74
2022/01/03 00:50:25;;;;;;;5.55;1.10;;;11.40;99.90;;;;;;20663832;28;20068;-75
2022/01/03 01:00:30;;;;;;;5.13;1.33;;;11.40;99.90;;;;;;20662023;28;20034;-76
2022/01/03 01:10:33;;;;;;;2.83;1.00;;;11.50;99.90;;;;;;20645047;28;20027;-75
2022/01/03 01:20:36;;;;;;;6.22;1.10;;;11.70;99.90;;;;;;20662643;28;20039;-76
2022/01/03 01:30:38;;;;;;;5.28;1.17;;;11.70;99.90;;;;;;20660798;28;20038;-76
2022/01/03 01:40:50;;;;;;;7.38;1.35;;;11.60;99.90;;;;;;20644183;28;20501;-76
2022/01/03 01:50:55;;;;;;;4.23;0.97;;;11.60;99.90;;;;;;20660152;28;20121;-76
2022/01/03 02:01:06;;;;;;;6.03;1.15;;;11.70;99.90;;;;;;20643348;28;20030;-76
2022/01/03 02:11:38;;;;;;;8.88;1.50;;;11.70;99.90;;;;;;20659371;28;20402;-76
2022/01/03 02:21:39;;;;;;;2.97;0.80;;;11.70;99.90;;;;;;20652867;28;20081;-76
2022/01/03 02:31:44;;;;;;;5.93;1.27;;;11.60;99.90;;;;;;20673696;28;20039;-75
2022/01/03 02:41:46;;;;;;;6.40;1.15;;;11.60;99.90;;;;;;20656709;28;20406;-75
2022/01/03 02:51:47;;;;;;;8.37;1.53;;;11.60;99.90;;;;;;20655894;28;20034;-76
2022/01/03 03:01:51;;;;;;;3.20;0.93;;;11.60;99.90;;;;;;20671334;28;20560;-76
2022/01/03 03:11:54;;;;;;;6.18;1.13;;;11.60;99.90;;;;;;20654325;28;20493;-75
2022/01/03 03:21:55;;;;;;;7.53;1.13;;;11.50;99.90;;;;;;20669601;28;20104;-75
2022/01/03 03:31:56;;;;;;;6.17;1.30;;;11.50;99.90;;;;;;20668822;28;20030;-75
2022/01/03 03:41:57;;;;;;;5.23;1.20;;;11.50;99.90;;;;;;20668201;28;20068;-74
2022/01/03 03:52:01;;;;;;;7.50;1.50;;;11.40;99.90;;;;;;20651379;28;20062;-76
2022/01/03 04:02:02;;;;;;;9.30;1.00;;;11.30;99.90;;;;;;20667635;28;20437;-75
2022/01/03 04:12:05;;;;;;;12.23;1.08;;;11.30;99.90;;;;;;20649662;28;20037;-76
2022/01/03 04:22:06;;;;;;;6.63;1.42;;;11.20;99.90;;;;;;20648806;28;20030;-76
2022/01/03 04:32:07;;;;;;;6.13;1.00;;;11.20;99.90;;;;;;20648181;28;20137;-76
2022/01/03 04:42:09;;;;;;;7.77;1.33;;;11.20;99.90;;;;;;20662920;28;20736;-76
2022/01/03 04:52:10;;;;;;;;;;;11.20;99.90;;;;;;20679302;28;20065;-80
2022/01/03 05:02:12;;;;;;;5.07;0.90;;;11.00;99.90;;;;;;20670894;28;19914;-80
2022/01/03 05:12:13;;;;;;;6.07;1.63;;;11.00;99.90;;;;;;20668041;28;20037;-79
2022/01/03 05:22:14;;;;;;;4.90;1.00;;;11.00;99.90;;;;;;20668649;28;20033;-80
2022/01/03 05:32:15;;;;;;;4.05;1.20;;;10.90;99.90;;;;;;20685549;28;20064;-80
2022/01/03 05:42:16;;;;;;;10.23;1.07;;;10.80;99.90;;;;;;20682946;28;20401;-79
2022/01/03 05:52:18;;;;;;;3.05;0.70;;;10.90;99.90;;;;;;20689879;28;20034;-79
2022/01/03 06:02:20;;;;;;;5.70;1.27;;;10.80;99.90;;;;;;20688678;28;20042;-80
2022/01/03 06:12:23;;;;;;;3.72;1.23;;;10.60;99.90;;;;;;20597662;28;20120;-75
2022/01/03 06:22:27;;;;;;;3.97;1.23;;;10.30;99.90;;;;;;20577919;28;20033;-75
2022/01/03 06:32:32;;;;;;;9.93;1.27;;;10.20;99.90;;;;;;20587770;28;20036;-76
2022/01/03 06:42:33;;;;;;;7.60;1.35;;;10.20;99.90;;;;;;20621187;28;20125;-76
2022/01/03 06:52:36;;;;;;;19.77;4.18;;;10.40;99.90;;;;;;20587115;28;20121;-76
2022/01/03 07:02:42;;;;;;;;;;;10.40;99.90;;;;;;20574532;28;20035;-75
2022/01/03 07:12:43;;;;;;;16.17;4.75;;;10.10;99.90;;;;;;20591637;28;19942;-76
2022/01/03 07:22:43;;;;;;;24.47;6.93;;;10.00;99.90;;;;;;20590841;28;20027;-76
2022/01/03 07:32:44;;;;;;;8.67;3.43;;;9.90;99.90;;;;;;20590045;28;20023;-76
2022/01/03 07:42:45;;;;;;;8.40;1.47;;;9.90;99.90;;;;;;20589350;28;20023;-76
2022/01/03 07:52:46;;;;;;;9.73;2.57;;;9.80;99.90;;;;;;20588521;28;20041;-76
2022/01/03 08:02:48;;;;;;;10.47;2.30;;;9.80;99.90;;;;;;20587412;28;20031;-75
2022/01/03 08:12:48;;;;;;;10.90;1.80;;;9.80;99.90;;;;;;20586218;28;20046;-76
2022/01/03 08:22:49;;;;;;;4.57;1.73;;;9.90;99.90;;;;;;20585885;28;20034;-76
2022/01/03 08:32:50;;;;;;;11.80;1.97;;;10.00;99.90;;;;;;20628161;28;20038;-76
2022/01/03 08:42:52;;;;;;;8.43;1.87;;;10.00;99.90;;;;;;20638111;28;20033;-76
2022/01/03 08:52:52;;;;;;;9.85;2.10;;;10.40;99.90;;;;;;20652023;28;20117;-75
2022/01/03 09:02:53;;;;;;;11.37;2.20;;;10.40;99.90;;;;;;20625728;28;20499;-75
2022/01/03 09:12:54;;;;;;;21.87;7.17;;;10.40;99.90;;;;;;20642516;28;20034;-76
2022/01/03 09:23:04;;;;;;;11.80;4.80;;;10.40;99.90;;;;;;20624837;28;20030;-75
2022/01/03 09:33:06;;;;;;;8.83;1.50;;;10.50;99.90;;;;;;20609676;28;20074;-76
2022/01/03 09:43:16;;;;;;;14.07;5.47;;;10.40;99.90;;;;;;20640562;28;20128;-76
2022/01/03 09:53:20;;;;;;;10.40;1.83;;;10.50;99.90;;;;;;20644079;28;20037;-76
2022/01/03 10:03:21;;;;;;;3.60;1.60;;;10.60;99.90;;;;;;20688731;28;20033;-75
2022/01/03 10:13:21;;;;;;;5.30;1.93;;;10.60;99.90;;;;;;20638663;28;20136;-76
2022/01/03 10:23:22;;;;;;;8.93;2.37;;;10.70;99.90;;;;;;20639598;28;20049;-76
2022/01/03 10:33:24;;;;;;;15.97;5.00;;;10.70;99.90;;;;;;20639724;28;20030;-76
2022/01/03 10:43:25;;;;;;;;;;;10.60;99.90;;;;;;20650815;28;20034;-75
2022/01/03 10:53:38;;;;;;;10.83;2.10;;;10.70;99.90;;;;;;20653261;28;20288;-76
2022/01/03 11:03:43;;;;;;;8.25;2.20;;;10.80;99.90;;;;;;20653658;28;20364;-76
2022/01/03 11:13:49;;;;;;;8.75;1.88;;;10.80;99.90;;;;;;20635391;28;20045;-76
2022/01/03 11:24:11;;;;;;;10.05;1.98;;;10.80;99.90;;;;;;20652609;28;20046;-75
2022/01/03 11:34:13;;;;;;;7.70;1.83;;;10.80;99.90;;;;;;20650742;28;20065;-76
2022/01/03 11:44:15;;;;;;;6.38;1.75;;;11.00;99.90;;;;;;20650628;28;20117;-76
2022/01/03 11:54:19;;;;;;;6.43;1.60;;;11.00;99.90;;;;;;20648545;28;20077;-76
2022/01/03 12:04:20;;;;;;;17.15;3.97;;;11.00;99.90;;;;;;20658991;28;20547;-76
2022/01/03 12:14:23;;;;;;;8.63;1.50;;;11.10;99.90;;;;;;20671766;28;20061;-76
2022/01/03 12:24:27;;;;;;;4.93;1.65;;;11.20;99.90;;;;;;20672650;28;20042;-76
2022/01/03 12:34:28;;;;;;;6.25;1.20;;;11.20;99.90;;;;;;20631862;28;20481;-76
2022/01/03 12:44:46;;;;;;;8.57;2.33;;;11.30;99.90;;;;;;20665076;28;20069;-76
2022/01/03 12:54:47;;;;;;;6.70;2.53;;;11.40;99.90;;;;;;20664207;28;20053;-76
2022/01/03 13:04:48;;;;;;;10.47;2.77;;;11.40;99.90;;;;;;20663111;28;20026;-76
2022/01/03 13:14:49;;;;;;;6.93;1.87;;;11.50;99.90;;;;;;20662903;28;20038;-76
2022/01/03 13:24:58;;;;;;;6.90;2.83;;;11.40;99.90;;;;;;20629227;28;20093;-76
2022/01/03 13:35:02;;;;;;;4.55;1.30;;;11.60;99.90;;;;;;20662067;28;20034;-76
2022/01/03 13:55:36;;;;;;;45.55;12.02;;;11.50;99.90;;;;;;20643601;28;20026;-76
2022/01/03 14:05:37;;;;;;;6.85;2.22;;;11.20;99.90;;;;;;20660998;28;20036;-76
2022/01/03 14:15:58;;;;;;;6.97;1.47;;;11.20;99.90;;;;;;20651690;28;20049;-76
2022/01/03 14:26:24;;;;;;;7.47;1.73;;;11.10;99.90;;;;;;20658077;28;20566;-76
2022/01/03 14:36:25;;;;;;;21.73;7.45;;;11.20;99.90;;;;;;20657318;28;20034;-76
2022/01/03 14:46:40;;;;;;;22.17;10.33;;;11.30;99.90;;;;;;20674084;28;20120;-76
2022/01/03 14:56:42;;;;;;;41.55;17.42;;;11.30;99.90;;;;;;20673134;28;20129;-76
2022/01/03 15:06:43;;;;;;;30.92;12.23;;;11.20;99.90;;;;;;20655341;28;20034;-76
2022/01/03 15:16:45;;;;;;;23.13;10.38;;;11.10;99.90;;;;;;20671852;28;20393;-76
2022/01/03 15:26:45;;;;;;;17.98;8.80;;;10.70;99.90;;;;;;20670598;28;20038;-76
2022/01/03 15:36:47;;;;;;;21.17;9.03;;;10.50;99.90;;;;;;20670402;28;20443;-76
2022/01/03 15:46:48;;;;;;;21.52;9.73;;;9.60;99.90;;;;;;20652219;28;20069;-76
2022/01/03 15:56:50;;;;;;;16.33;7.67;;;9.80;99.90;;;;;;20668544;28;20120;-76
2022/01/03 16:06:51;;;;;;;17.65;8.68;;;9.50;99.90;;;;;;20666677;28;20121;-76
2022/01/03 16:16:52;;;;;;;21.57;7.70;;;9.40;99.90;;;;;;20666940;28;20076;-76
2022/01/03 16:26:52;;;;;;;13.70;5.53;;;9.10;99.90;;;;;;20666541;28;20034;-76
2022/01/03 16:36:53;;;;;;;15.07;5.13;;;8.90;99.90;;;;;;20664478;28;20034;-76
2022/01/03 16:46:54;;;;;;;30.40;8.77;;;8.70;99.90;;;;;;20664701;28;20037;-76
2022/01/03 16:56:55;;;;;;;21.93;8.80;;;8.60;99.90;;;;;;20664059;28;20023;-76
2022/01/03 17:06:56;;;;;;;21.10;7.67;;;8.60;99.90;;;;;;20621202;28;20042;-75
2022/01/03 17:16:58;;;;;;;17.83;7.60;;;8.60;99.90;;;;;;20662760;28;20728;-76
2022/01/03 17:26:59;;;;;;;25.08;10.82;;;8.50;99.90;;;;;;20662535;28;20485;-76
2022/01/03 17:37:00;;;;;;;21.90;9.07;;;8.50;99.90;;;;;;20661964;28;20037;-76
2022/01/03 17:47:01;;;;;;;10.23;5.23;;;8.40;99.90;;;;;;20665062;28;20085;-76
2022/01/03 17:57:02;;;;;;;10.20;4.20;;;8.50;99.90;;;;;;20677847;28;20405;-76
2022/01/03 18:07:05;;;;;;;9.27;3.70;;;8.40;99.90;;;;;;20673207;28;20516;-76
2022/01/03 18:17:06;;;;;;;14.10;6.82;;;8.20;99.90;;;;;;20683970;28;20087;-76
2022/01/03 18:27:07;;;;;;;23.97;14.03;;;7.90;99.90;;;;;;20713270;28;20065;-76
2022/01/03 18:37:10;;;;;;;25.48;15.77;;;7.80;99.90;;;;;;20674852;28;20030;-76
2022/01/03 18:47:11;;;;;;;25.27;13.25;;;7.60;99.90;;;;;;20656582;28;20031;-75
2022/01/03 18:57:12;;;;;;;30.05;11.20;;;7.40;99.90;;;;;;20630923;28;20114;-75
2022/01/03 19:07:13;;;;;;;26.07;10.33;;;7.70;99.90;;;;;;20608835;28;20062;-75
2022/01/03 19:17:14;;;;;;;22.40;11.33;;;7.80;99.90;;;;;;20573880;28;20035;-75
2022/01/03 19:27:15;;;;;;;19.00;9.50;;;7.70;99.90;;;;;;20590462;28;20035;-75
2022/01/03 19:47:36;;;;;;;19.27;8.45;;;7.80;99.90;;;;;;20571604;28;20047;-75
2022/01/03 19:57:38;;;;;;;28.13;13.95;;;7.90;99.90;;;;;;20588081;28;20109;-75
2022/01/03 20:07:39;;;;;;;;;;;7.70;99.90;;;;;;20601972;28;20093;-75
2022/01/03 20:17:41;;;;;;;13.43;7.18;;;7.80;99.90;;;;;;20649383;28;19914;-75
2022/01/03 20:27:42;;;;;;;;;;;8.00;99.90;;;;;;20666856;28;20077;-76
2022/01/03 20:37:43;;;;;;;8.27;4.35;;;7.80;99.90;;;;;;20665630;28;19921;-75
2022/01/03 20:47:44;;;;;;;;;;;7.80;99.90;;;;;;20665384;28;20038;-75
2022/01/03 20:57:45;;;;;;;8.20;4.05;;;7.80;99.90;;;;;;20664094;28;19920;-75
2022/01/03 21:07:47;;;;;;;;;;;7.70;99.90;;;;;;20663901;28;20428;-75
2022/01/03 21:17:47;;;;;;;14.52;5.57;;;7.60;99.90;;;;;;20645513;28;20005;-75
2022/01/03 21:27:48;;;;;;;20.40;10.03;;;7.50;99.90;;;;;;20662065;28;20474;-75
2022/01/03 21:37:49;;;;;;;36.63;15.10;;;7.70;99.90;;;;;;20644731;28;20045;-75
2022/01/03 21:47:57;;;;;;;18.63;8.32;;;7.70;99.90;;;;;;20661627;28;20030;-75
2022/01/03 21:57:58;;;;;;;10.63;3.50;;;7.40;99.90;;;;;;20661233;28;20041;-75
2022/01/03 22:07:59;;;;;;;8.63;2.83;;;7.40;99.90;;;;;;20627323;28;20291;-75
2022/01/03 22:18:00;;;;;;;8.93;2.93;;;7.40;99.90;;;;;;20630763;28;20034;-74
2022/01/03 22:28:01;;;;;;;10.43;3.70;;;7.60;99.90;;;;;;20610981;28;20559;-75
2022/01/03 22:38:03;;;;;;;5.10;2.78;;;7.70;99.90;;;;;;20650320;28;20113;-75
2022/01/03 22:48:04;;;;;;;7.95;2.50;;;7.60;99.90;;;;;;20655336;28;20042;-75
2022/01/03 22:58:05;;;;;;;6.22;2.13;;;7.60;99.90;;;;;;20654401;28;20034;-75
2022/01/03 23:08:06;;;;;;;7.57;2.77;;;7.70;99.90;;;;;;20636269;28;20053;-75
2022/01/03 23:18:06;;;;;;;5.40;2.20;;;7.70;99.90;;;;;;20686116;28;20036;-75
2022/01/03 23:28:07;;;;;;;4.30;2.33;;;7.50;99.90;;;;;;20725639;28;20034;-75
2022/01/03 23:38:08;;;;;;;7.93;2.20;;;7.50;99.90;;;;;;20715491;28;20038;-75
2022/01/03 23:48:09;;;;;;;3.63;1.63;;;7.50;99.90;;;;;;20651015;28;20471;-75
2022/01/03 23:58:10;;;;;;;9.90;4.83;;;7.50;99.90;;;;;;20650200;28;20038;-75
